Stinson Municipal Airport
KSSF : rendu visible

Aérodrome :











RETROUVEZ-NOUS SUR...

 
LOGIN :

S'inscrire | Disclaimer

   EN    FR    IT 

 









Légende :    VFR   VFR Marginal   IFR   IFR Intensif   IFR Très Intensif
Visi : 
Plafond : 
>= 8 km
>= 3000ft
5 à 8 km
1000 à 3000 ft
1500m à 5 km
500 à 1000 ft
800 à 1500m
200 à 500 ft
< 800m
< 200 ft
Symboles :   Orages  Brouillard  Fortes neiges  Fortes précipitations  Vent > 20 kt






- Altitude de l'aérodrome : 577 ft


KSSF - Stinson Municipal

DERNIER METAR :
  • 230953Z AUTO 36004KT 10SM CLR 21/19 A2989 RMK AO2 SLP111 T02060189

METARs EXPIRÉS :
  • 230853Z AUTO 34004KT 10SM CLR 21/19 A2989 RMK AO2 SLP112 T02060189 58008
  • 230753Z AUTO 36005KT 10SM SCT022 21/19 A2990 RMK AO2 SLP116 T02110189
  • 230653Z AUTO 36008KT 10SM CLR 22/19 A2991 RMK AO2 SLP117 T02170189

TAF KSSF
Valide du 23 à 09h jusqu'au 24 à 06h UTC


230922Z 2309/2406 35005KT P6SM SCT020
FM231300 36007KT P6SM OVC015
FM231900 02008KT P6SM SCT040
FIR KZHU / Amérique du Nord



MET'MAP, la Météo Aéronautique d'un coup d'oeil ! - Copyright ORBIFLY Décembre 2007 - Disclaimer

ORBIFLY MET'MAP TEAM :

Programmation & Développement : Alexandra Zaïnal
Sur une idée originale de : Baudouin d'Aumeries
Assistance à la programmation : Marc-Olivier Méhu
Soutien technique & logistique : Manuel Goepfert

Contact : metmap@orbifly.com




SOURCES & CREDITS :

   NOAA       Earth
Advisory